createdAt,value
2023-05-25T00:04:17.935Z,101104.59
2023-05-25T00:09:24.174Z,101105.06
2023-05-25T00:14:31.453Z,101102.88
2023-05-25T00:19:37.591Z,101108.53
2023-05-25T00:24:42.074Z,101104.56
2023-05-25T00:29:51.354Z,101107.56
2023-05-25T00:34:59.805Z,101123.69
2023-05-25T00:40:07.448Z,101116.38
2023-05-25T00:45:14.605Z,101114.22
2023-05-25T00:50:24.512Z,101118.97
2023-05-25T00:55:32.346Z,101120.31
2023-05-25T01:00:40.367Z,101132.91
2023-05-25T01:05:50.956Z,101131.56
2023-05-25T01:11:01.170Z,101124.97
2023-05-25T01:16:07.062Z,101128.53
2023-05-25T01:21:20.552Z,101129.81
2023-05-25T01:26:29.921Z,101122.31
2023-05-25T01:31:38.837Z,101111.31
2023-05-25T01:36:45.639Z,101120.94
2023-05-25T01:42:07.632Z,101129.84
2023-05-25T01:47:24.968Z,101123.16
2023-05-25T01:52:43.474Z,101127.75
2023-05-25T01:57:53.016Z,101114.91
2023-05-25T02:02:59.090Z,101129.97
2023-05-25T02:08:07.725Z,101128.63
2023-05-25T02:13:12.776Z,101122.88
2023-05-25T02:18:18.051Z,101122.34
2023-05-25T02:23:30.051Z,101124.25
2023-05-25T02:28:36.280Z,101122.78
2023-05-25T02:33:43.698Z,101117.75
2023-05-25T02:38:52.632Z,101118.69
2023-05-25T02:43:57.330Z,101117.22
2023-05-25T02:49:05.092Z,101118.38
2023-05-25T02:54:15.799Z,101110.84
2023-05-25T02:59:22.828Z,101116.22
2023-05-25T03:04:36.264Z,101121.63
2023-05-25T03:09:45.797Z,101121.63
2023-05-25T03:14:51.284Z,101125.16
2023-05-25T03:20:00.982Z,101130.50
2023-05-25T03:25:09.751Z,101141.91
2023-05-25T03:30:16.220Z,101133.22
2023-05-25T03:35:21.118Z,101136.69
2023-05-25T03:40:26.730Z,101144.31
2023-05-25T03:45:31.694Z,101144.00
2023-05-25T03:50:43.038Z,101154.88
2023-05-25T03:55:52.582Z,101157.06
2023-05-25T04:00:59.307Z,101165.31
2023-05-25T04:06:04.773Z,101170.13
2023-05-25T04:11:10.486Z,101180.78
2023-05-25T04:16:16.911Z,101199.19
2023-05-25T04:21:27.104Z,101200.13
2023-05-25T04:26:33.894Z,101193.94
2023-05-25T04:31:49.607Z,101203.84
2023-05-25T04:37:00.612Z,101192.81
2023-05-25T04:47:37.732Z,101187.25
2023-05-25T04:52:41.185Z,101175.81
2023-05-25T04:57:44.280Z,101182.88
2023-05-25T05:02:49.127Z,101172.59
2023-05-25T05:07:54.030Z,101162.03
2023-05-25T05:12:57.354Z,101172.25
2023-05-25T05:18:02.250Z,101180.16
2023-05-25T05:23:05.917Z,101184.31
2023-05-25T05:28:09.370Z,101189.59
2023-05-25T05:33:16.402Z,101200.69
2023-05-25T05:38:20.312Z,101215.94
2023-05-25T05:43:23.619Z,101213.44
2023-05-25T05:48:28.202Z,101218.84
2023-05-25T05:53:32.472Z,101225.91
2023-05-25T05:58:35.736Z,101225.00
2023-05-25T06:03:40.450Z,101230.03
2023-05-25T06:08:44.402Z,101231.13
2023-05-25T06:13:47.641Z,101230.94
2023-05-25T06:18:52.266Z,101226.09
2023-05-25T06:23:57.787Z,101228.94
2023-05-25T06:29:05.017Z,101225.69
2023-05-25T06:34:09.741Z,101228.84
2023-05-25T06:39:13.032Z,101227.38
2023-05-25T06:44:16.495Z,101223.91
2023-05-25T06:49:22.521Z,101220.03
2023-05-25T06:54:25.852Z,101224.16
2023-05-25T06:59:29.355Z,101228.56
2023-05-25T07:04:34.774Z,101221.91
2023-05-25T07:09:38.214Z,101232.03
2023-05-25T07:14:48.599Z,101229.63
2023-05-25T07:19:53.449Z,101226.66
2023-05-25T07:24:59.804Z,101238.88
2023-05-25T07:30:03.186Z,101226.06
2023-05-25T07:35:09.532Z,101225.16
2023-05-25T07:40:13.762Z,101223.16
2023-05-25T07:45:17.290Z,101213.69
2023-05-25T07:50:26.261Z,101224.81
2023-05-25T07:55:29.632Z,101224.47
2023-05-25T08:00:35.573Z,101232.47
2023-05-25T08:05:40.614Z,101237.28
2023-05-25T08:10:43.848Z,101234.75
2023-05-25T08:15:47.290Z,101232.88
2023-05-25T08:20:52.347Z,101232.41
2023-05-25T08:25:55.786Z,101242.91
2023-05-25T08:30:59.596Z,101242.44
2023-05-25T08:36:04.720Z,101242.91
2023-05-25T08:41:09.112Z,101237.06
2023-05-25T08:46:12.877Z,101251.44
2023-05-25T08:51:18.984Z,101263.06
2023-05-25T08:56:24.804Z,101251.78
2023-05-25T09:01:33.765Z,101251.53
2023-05-25T09:06:38.812Z,101263.31
2023-05-25T09:11:45.760Z,101268.50
2023-05-25T09:16:49.230Z,101264.47
2023-05-25T09:22:03.243Z,101264.41
2023-05-25T09:27:23.656Z,101256.56
2023-05-25T09:32:27.561Z,101263.69
2023-05-25T09:37:32.500Z,101270.13
2023-05-25T09:42:36.160Z,101272.72
2023-05-25T09:47:41.325Z,101268.91
2023-05-25T09:52:46.804Z,101263.25
2023-05-25T09:57:54.903Z,101262.59
2023-05-25T10:02:58.688Z,101273.72
2023-05-25T10:08:04.769Z,101267.91
2023-05-25T10:13:10.224Z,101267.22
2023-05-25T10:18:15.762Z,101266.81
2023-05-25T10:23:22.377Z,101267.91
2023-05-25T10:28:31.440Z,101261.81
2023-05-25T10:33:34.986Z,101269.63
2023-05-25T10:38:42.002Z,101270.72
2023-05-25T10:43:45.304Z,101265.53
2023-05-25T10:48:50.264Z,101266.88
2023-05-25T10:54:02.518Z,101255.19
2023-05-25T10:59:05.798Z,101255.69
2023-05-25T11:04:18.611Z,101258.44
2023-05-25T11:09:28.285Z,101241.09
2023-05-25T11:14:32.740Z,101243.13
2023-05-25T11:19:43.684Z,101240.00
2023-05-25T11:24:48.801Z,101237.06
2023-05-25T11:29:53.272Z,101244.34
2023-05-25T11:34:58.606Z,101232.72
2023-05-25T11:40:10.032Z,101227.19
2023-05-25T11:45:15.729Z,101232.63
2023-05-25T11:50:19.111Z,101228.66
2023-05-25T11:55:23.880Z,101222.09
2023-05-25T12:00:28.804Z,101228.09
2023-05-25T12:05:39.280Z,101217.63
2023-05-25T12:10:52.857Z,101221.00
2023-05-25T12:15:57.763Z,101220.69
2023-05-25T12:21:05.248Z,101201.72
2023-05-25T12:26:13.375Z,101206.03
2023-05-25T12:31:24.343Z,101202.94
2023-05-25T12:36:38.630Z,101197.13
2023-05-25T12:42:02.165Z,101196.00
2023-05-25T12:47:12.987Z,101187.72
2023-05-25T12:52:34.652Z,101192.78
2023-05-25T12:57:39.753Z,101184.69
2023-05-25T13:02:47.787Z,101191.50
2023-05-25T13:07:53.158Z,101181.38
2023-05-25T13:12:58.710Z,101187.66
2023-05-25T13:18:02.108Z,101171.09
2023-05-25T13:23:06.036Z,101163.69
2023-05-25T13:28:10.719Z,101176.16
2023-05-25T13:33:14.176Z,101169.84
2023-05-25T13:38:17.690Z,101169.59
2023-05-25T13:43:22.365Z,101162.09
2023-05-25T13:48:25.824Z,101154.41
2023-05-25T13:53:29.604Z,101159.91
2023-05-25T13:58:34.342Z,101169.06
2023-05-25T14:03:39.047Z,101156.59
2023-05-25T14:08:42.621Z,101156.78
2023-05-25T14:13:47.166Z,101155.00
2023-05-25T14:18:50.482Z,101151.28
2023-05-25T14:23:53.884Z,101149.28
2023-05-25T14:28:58.598Z,101144.91
2023-05-25T14:34:02.450Z,101145.09
2023-05-25T14:39:06.236Z,101148.09
2023-05-25T14:44:11.482Z,101145.97
2023-05-25T14:49:14.939Z,101148.91
2023-05-25T14:54:18.093Z,101137.28
2023-05-25T14:59:22.915Z,101137.59
2023-05-25T15:04:32.909Z,101144.22
2023-05-25T15:09:36.746Z,101138.69
2023-05-25T15:14:42.435Z,101139.97
2023-05-25T15:19:45.780Z,101146.53
2023-05-25T15:24:49.028Z,101139.78
2023-05-25T15:29:56.127Z,101147.31
2023-05-25T15:34:59.478Z,101146.84
2023-05-25T15:40:02.707Z,101135.78
2023-05-25T15:45:08.590Z,101137.47
2023-05-25T15:50:12.981Z,101130.81
2023-05-25T15:55:16.258Z,101118.06
2023-05-25T16:00:21.797Z,101116.59
2023-05-25T16:05:25.381Z,101107.13
2023-05-25T16:10:28.577Z,101109.47
2023-05-25T16:15:33.144Z,101114.13
2023-05-25T16:20:36.817Z,101114.78
2023-05-25T16:25:40.024Z,101109.16
2023-05-25T16:30:44.846Z,101114.31
2023-05-25T16:35:49.590Z,101109.34
2023-05-25T16:40:53.264Z,101106.75
2023-05-25T16:45:59.257Z,101104.06
2023-05-25T16:51:02.722Z,101107.41
2023-05-25T16:56:10.974Z,101112.06
2023-05-25T17:01:16.036Z,101102.75
2023-05-25T17:06:19.445Z,101097.28
2023-05-25T17:11:26.568Z,101104.44
2023-05-25T17:16:32.723Z,101111.38
2023-05-25T17:21:36.326Z,101113.38
2023-05-25T17:26:42.037Z,101113.56
2023-05-25T17:31:48.661Z,101110.06
2023-05-25T17:36:52.558Z,101113.88
2023-05-25T17:41:58.272Z,101118.00
2023-05-25T17:47:09.153Z,101125.97
2023-05-25T17:52:14.277Z,101123.44
2023-05-25T17:57:17.815Z,101128.59
2023-05-25T18:02:25.278Z,101123.25
2023-05-25T18:07:28.766Z,101127.50
2023-05-25T18:12:31.999Z,101128.78
2023-05-25T18:17:36.692Z,101129.25
2023-05-25T18:22:40.081Z,101135.34
2023-05-25T18:27:43.311Z,101136.47
2023-05-25T18:32:48.107Z,101139.44
2023-05-25T18:37:51.895Z,101140.34
2023-05-25T18:42:55.232Z,101149.41
2023-05-25T18:48:07.528Z,101143.38
2023-05-25T18:53:11.145Z,101141.78
2023-05-25T18:58:14.298Z,101148.31
2023-05-25T19:03:19.344Z,101150.22
2023-05-25T19:08:22.789Z,101167.19
2023-05-25T19:13:26.021Z,101170.38
2023-05-25T19:18:30.743Z,101169.75
2023-05-25T19:23:35.187Z,101179.56
2023-05-25T19:28:38.646Z,101183.25
2023-05-25T19:33:43.314Z,101196.69
2023-05-25T19:38:46.625Z,101200.50
2023-05-25T19:43:49.920Z,101204.00
2023-05-25T19:48:54.596Z,101207.66
2023-05-25T19:53:58.105Z,101207.72
2023-05-25T19:59:01.306Z,101209.56
2023-05-25T20:04:08.249Z,101211.25
2023-05-25T20:09:12.752Z,101209.50
2023-05-25T20:14:16.936Z,101216.59
2023-05-25T20:19:23.485Z,101219.25
2023-05-25T20:24:26.739Z,101220.81
2023-05-25T20:29:30.079Z,101222.59
2023-05-25T20:34:34.811Z,101224.94
2023-05-25T20:39:38.202Z,101228.56
2023-05-25T20:44:41.670Z,101231.50
2023-05-25T20:49:46.278Z,101233.03
2023-05-25T20:54:49.675Z,101233.44
2023-05-25T20:59:54.352Z,101240.50
2023-05-25T21:04:59.113Z,101247.31
2023-05-25T21:10:03.151Z,101252.28
2023-05-25T21:15:07.351Z,101250.06
2023-05-25T21:20:12.849Z,101251.72
2023-05-25T21:25:16.217Z,101260.44
2023-05-25T21:30:20.935Z,101257.50
2023-05-25T21:35:25.817Z,101258.19
2023-05-25T21:40:29.182Z,101256.91
2023-05-25T21:45:32.236Z,101260.19
2023-05-25T21:50:37.065Z,101251.84
2023-05-25T21:55:41.049Z,101263.06
2023-05-25T22:00:44.435Z,101266.34
2023-05-25T22:05:49.262Z,101265.06
2023-05-25T22:10:52.516Z,101269.06
2023-05-25T22:15:55.836Z,101271.50
2023-05-25T22:21:00.616Z,101268.31
2023-05-25T22:26:05.247Z,101262.97
2023-05-25T22:31:08.775Z,101260.03
2023-05-25T22:36:13.634Z,101270.00
2023-05-25T22:41:17.006Z,101266.19
2023-05-25T22:46:20.770Z,101269.22
2023-05-25T22:51:25.513Z,101267.00
2023-05-25T22:56:28.704Z,101278.84
2023-05-25T23:01:32.338Z,101279.22
2023-05-25T23:06:37.242Z,101271.97
2023-05-25T23:11:40.711Z,101274.16
2023-05-25T23:16:44.630Z,101270.22
2023-05-25T23:21:49.534Z,101269.88
2023-05-25T23:26:53.147Z,101265.81
2023-05-25T23:31:56.516Z,101273.25
2023-05-25T23:37:01.452Z,101272.91
2023-05-25T23:42:04.963Z,101267.19
2023-05-25T23:47:08.453Z,101266.72
2023-05-25T23:52:13.063Z,101269.00
2023-05-25T23:57:16.368Z,101281.59
